TimeMST,TemperatureF,Dew PointF,Humidity,Sea Level PressureIn,VisibilityMPH,Wind Direction,Wind SpeedMPH,Gust SpeedMPH,PrecipitationIn,Events,Conditions,WindDirDegrees,DateUTC
12:53 AM,36.0,10.9,36,29.87,10.0,Variable,3.5,-,N/A,,Clear,0,2012-11-08 07:53:00
1:53 AM,35.1,9.0,34,29.86,10.0,NNW,5.8,-,N/A,,Clear,330,2012-11-08 08:53:00
2:53 AM,35.1,10.0,35,29.85,10.0,ENE,9.2,-,N/A,,Clear,60,2012-11-08 09:53:00
3:53 AM,32.0,9.0,38,29.85,10.0,NE,9.2,-,N/A,,Clear,50,2012-11-08 10:53:00
4:53 AM,33.1,9.0,37,29.90,10.0,NNE,9.2,-,N/A,,Clear,20,2012-11-08 11:53:00
5:53 AM,36.0,10.9,36,29.91,10.0,NNE,6.9,-,N/A,,Clear,20,2012-11-08 12:53:00
6:53 AM,33.1,10.9,40,29.96,10.0,NE,8.1,-,N/A,,Clear,50,2012-11-08 13:53:00
7:53 AM,39.0,12.9,34,29.94,10.0,ENE,5.8,-,N/A,,Clear,60,2012-11-08 14:53:00
8:53 AM,55.9,10.9,17,29.88,10.0,ENE,5.8,-,N/A,,Clear,60,2012-11-08 15:53:00
10:53 AM,66.9,12.9,12,29.87,10.0,SSW,9.2,-,N/A,,Clear,200,2012-11-08 17:53:00
11:53 AM,69.1,14.0,12,29.84,10.0,SSW,12.7,24.2,N/A,,Clear,210,2012-11-08 18:53:00
12:53 PM,70.0,14.0,12,29.82,10.0,SSW,11.5,-,N/A,,Clear,200,2012-11-08 19:53:00
1:53 PM,71.1,18.0,13,29.79,10.0,SW,10.4,-,N/A,,Clear,230,2012-11-08 20:53:00
2:53 PM,70.0,16.0,13,29.78,10.0,SW,17.3,-,N/A,,Clear,220,2012-11-08 21:53:00
3:49 PM,66.2,21.2,18,29.94,10.0,West,15.0,-,N/A,,Clear,270,2012-11-08 22:49:00
3:53 PM,66.0,21.0,18,29.81,10.0,West,12.7,-,N/A,,Clear,260,2012-11-08 22:53:00
4:53 PM,61.0,21.9,22,29.82,10.0,West,9.2,-,N/A,,Clear,260,2012-11-08 23:53:00
5:53 PM,57.9,21.9,25,29.83,10.0,West,9.2,-,N/A,,Partly Cloudy,280,2012-11-09 00:53:00
6:53 PM,60.1,21.9,23,29.83,10.0,West,16.1,-,N/A,,Clear,270,2012-11-09 01:53:00
7:53 PM,55.9,23.0,28,29.82,10.0,WSW,9.2,-,N/A,,Clear,250,2012-11-09 02:53:00
8:53 PM,51.1,23.0,33,29.78,10.0,SSW,9.2,-,N/A,,Clear,210,2012-11-09 03:53:00
9:53 PM,45.0,21.9,40,29.79,10.0,Variable,3.5,-,N/A,,Clear,0,2012-11-09 04:53:00
10:53 PM,46.0,21.9,39,29.77,10.0,North,3.5,-,N/A,,Clear,10,2012-11-09 05:53:00
11:53 PM,39.0,21.9,50,29.78,10.0,NNW,4.6,-,N/A,,Clear,330,2012-11-09 06:53:00